Time;durP1;ratioP1;P1;durP2;ratioP2;P2;SDS_P1;SDS_P2;PMS_P1;PMS_P2;Temp;Humidity;BMP_temperature;BMP_pressure;BME280_temperature;BME280_humidity;BME280_pressure;Samples;Min_cycle;Max_cycle;Signal;HPM_P1;HPM_P2
2021/04/13 00:01:14;;;;;;;9.00;5.82;;;;;;;20.30;43.66;100792.41;2062543;28;20045;-68
2021/04/13 00:02:26;;;;;;;9.95;5.60;;;;;;;20.29;43.68;100812.59;2069803;28;20592;-68
2021/04/13 00:03:26;;;;;;;10.50;6.05;;;;;;;20.28;43.93;100800.75;2069550;28;20412;-68
2021/04/13 00:04:27;;;;;;;10.33;5.90;;;;;;;20.28;43.86;100799.88;2070552;28;20385;-68
2021/04/13 00:05:46;;;;;;;8.57;5.97;;;;;;;20.26;44.00;100797.31;2067225;28;20033;-68
2021/04/13 00:06:49;;;;;;;8.40;5.45;;;;;;;20.27;43.81;100801.75;2070921;28;20113;-68
2021/04/13 00:07:51;;;;;;;7.82;6.10;;;;;;;20.27;43.83;100801.75;2071389;28;20034;-68
2021/04/13 00:09:16;;;;;;;8.15;5.22;;;;;;;20.26;43.79;100800.03;2068686;28;20416;-68
2021/04/13 00:10:21;;;;;;;9.43;5.65;;;;;;;20.26;43.87;100796.41;2067495;28;20813;-68
2021/04/13 00:11:24;;;;;;;8.27;5.72;;;;;;;20.26;43.88;100790.94;2070600;28;20030;-68
2021/04/13 00:12:29;;;;;;;9.00;6.30;;;;;;;20.25;43.95;100789.22;2063794;28;20034;-68
2021/04/13 00:13:33;;;;;;;8.80;5.60;;;;;;;20.24;43.94;100792.97;2059866;28;20034;-68
2021/04/13 00:14:38;;;;;;;8.43;5.82;;;;;;;20.24;43.81;100793.84;2070720;28;20026;-68
2021/04/13 00:15:49;;;;;;;8.50;6.10;;;;;;;20.23;43.92;100785.75;2064962;28;20133;-68
2021/04/13 00:16:50;;;;;;;12.07;5.90;;;;;;;20.23;43.96;100797.56;2061906;28;20037;-68
2021/04/13 00:17:52;;;;;;;9.23;6.70;;;;;;;20.23;44.03;100796.72;2070833;28;20120;-68
2021/04/13 00:18:56;;;;;;;7.85;5.50;;;;;;;20.23;43.99;100796.72;2067633;28;20026;-68
2021/04/13 00:19:59;;;;;;;8.65;5.63;;;;;;;20.23;43.96;100791.22;2070632;28;20504;-68
2021/04/13 00:21:15;;;;;;;8.18;5.90;;;;;;;20.21;43.93;100787.75;2068985;28;20057;-68
2021/04/13 00:22:16;;;;;;;8.13;6.30;;;;;;;20.21;44.21;100793.25;2069239;28;20443;-68
2021/04/13 00:23:18;;;;;;;8.70;5.68;;;;;;;20.20;44.17;100792.38;2070659;28;20034;-68
2021/04/13 00:24:21;;;;;;;11.93;6.43;;;;;;;20.20;44.06;100797.00;2068784;28;20095;-68
2021/04/13 00:25:35;;;;;;;9.13;5.38;;;;;;;20.19;44.11;100792.53;2069357;28;20032;-68
2021/04/13 00:26:35;;;;;;;11.25;5.90;;;;;;;20.20;44.07;100791.53;2070745;28;20400;-68
2021/04/13 00:27:36;;;;;;;8.43;5.50;;;;;;;20.19;44.02;100795.28;2070233;28;20108;-68
2021/04/13 00:28:43;;;;;;;10.50;6.63;;;;;;;20.18;44.00;100790.78;2070495;28;20053;-68
2021/04/13 00:29:44;;;;;;;7.20;5.32;;;;;;;20.17;44.01;100791.81;2064524;28;20033;-68
2021/04/13 00:30:49;;;;;;;9.67;6.03;;;;;;;20.18;43.89;100791.66;2068648;28;20029;-68
2021/04/13 00:31:54;;;;;;;8.88;6.38;;;;;;;20.16;44.02;100790.91;2069606;28;20110;-68
2021/04/13 00:33:01;;;;;;;9.77;6.07;;;;;;;20.16;44.08;100790.06;2069451;28;20907;-68
2021/04/13 00:34:01;;;;;;;8.77;5.78;;;;;;;20.16;44.17;100785.44;2069899;28;20068;-68
2021/04/13 00:35:18;;;;;;;8.23;5.00;;;;;;;20.18;44.15;100793.53;2070280;28;20022;-69
2021/04/13 00:36:21;;;;;;;8.70;5.75;;;;;;;20.15;44.15;100788.34;2069522;28;20026;-68
2021/04/13 00:37:32;;;;;;;9.35;5.90;;;;;;;20.13;44.11;100786.59;2070642;28;20040;-68
2021/04/13 00:38:52;;;;;;;9.30;5.47;;;;;;;20.12;44.13;100784.00;2063330;28;20022;-68
2021/04/13 00:40:13;;;;;;;7.80;5.22;;;;;;;20.11;44.22;100777.69;2068470;28;20028;-68
2021/04/13 00:41:24;;;;;;;10.77;5.55;;;;;;;20.10;44.22;100780.53;2058658;28;20037;-68
2021/04/13 00:42:28;;;;;;;9.63;6.15;;;;;;;20.10;44.21;100775.06;2068183;28;20467;-68
2021/04/13 00:43:45;;;;;;;8.05;5.60;;;;;;;20.09;44.07;100782.44;2067006;28;20033;-68
2021/04/13 00:44:51;;;;;;;9.05;5.43;;;;;;;20.09;44.16;100781.56;2066764;28;20538;-68
2021/04/13 00:45:54;;;;;;;8.07;5.18;;;;;;;20.08;44.25;100777.94;2069509;28;20021;-68
2021/04/13 00:47:02;;;;;;;9.85;5.60;;;;;;;20.08;44.06;100777.94;2062496;28;20497;-68
2021/04/13 00:48:04;;;;;;;8.38;5.35;;;;;;;20.09;44.37;100785.16;2068199;28;20033;-68
2021/04/13 00:49:04;;;;;;;;;;;;;;;20.04;44.28;100779.25;2069612;28;20083;-68
2021/04/13 00:50:14;;;;;;;7.63;5.45;;;;;;;20.05;44.34;100778.22;2069161;28;20012;-68
2021/04/13 00:51:34;;;;;;;7.05;5.30;;;;;;;20.06;44.27;100773.63;2068381;28;20048;-68
2021/04/13 00:52:39;;;;;;;8.85;5.57;;;;;;;20.06;44.28;100773.63;2069121;28;20069;-68
2021/04/13 00:53:41;;;;;;;9.05;5.70;;;;;;;20.06;44.32;100773.63;2070078;28;20021;-68
2021/04/13 00:54:47;;;;;;;8.85;5.57;;;;;;;20.05;44.31;100767.28;2066520;28;20366;-68
2021/04/13 00:55:57;;;;;;;8.98;5.43;;;;;;;20.04;44.32;100771.03;2068933;28;20038;-68
2021/04/13 00:57:04;;;;;;;7.70;5.30;;;;;;;20.04;44.41;100770.13;2069121;28;20105;-68
2021/04/13 00:58:36;;;;;;;7.85;5.60;;;;;;;20.01;44.37;100771.28;2064478;28;20031;-68
2021/04/13 00:59:36;;;;;;;8.45;4.80;;;;;;;20.03;44.37;100768.41;2065121;28;20072;-68
2021/04/13 01:00:42;;;;;;;10.00;5.20;;;;;;;20.02;44.49;100758.50;2070653;28;20026;-68
2021/04/13 01:01:50;;;;;;;7.78;5.38;;;;;;;20.02;44.44;100764.84;2067438;28;20032;-68
2021/04/13 01:02:57;;;;;;;10.20;4.88;;;;;;;20.02;44.36;100766.72;2066398;28;20022;-68
2021/04/13 01:04:02;;;;;;;9.25;5.95;;;;;;;20.02;44.32;100766.72;2062292;28;20424;-67
2021/04/13 01:05:06;;;;;;;8.60;5.63;;;;;;;20.01;44.43;100749.41;2068043;28;20057;-68
2021/04/13 01:06:18;;;;;;;10.65;5.18;;;;;;;20.01;44.45;100759.47;2064235;28;20030;-68
2021/04/13 01:07:29;;;;;;;7.65;4.65;;;;;;;20.00;44.31;100758.63;2066026;28;20025;-67
2021/04/13 01:08:38;;;;;;;6.60;4.93;;;;;;;20.00;44.42;100752.28;2067869;28;20048;-68
2021/04/13 01:09:50;;;;;;;9.15;5.65;;;;;;;19.99;44.46;100754.16;2064191;28;20148;-68
2021/04/13 01:10:54;;;;;;;9.15;5.30;;;;;;;19.99;44.53;100762.38;2067181;28;20036;-68
2021/04/13 01:11:59;;;;;;;7.35;4.72;;;;;;;20.00;44.39;100763.25;2068060;28;20385;-67
2021/04/13 01:13:16;;;;;;;8.52;4.85;;;;;;;19.98;44.37;100760.63;2061846;28;20732;-68
2021/04/13 01:14:19;;;;;;;7.47;5.03;;;;;;;19.99;44.40;100761.50;2064550;28;20089;-67
2021/04/13 01:15:21;;;;;;;5.63;4.15;;;;;;;19.98;44.44;100754.31;2065142;28;20109;-67
2021/04/13 01:16:24;;;;;;;;;;;;;;;19.94;44.43;100759.16;2064257;28;20401;-67
2021/04/13 01:17:26;;;;;;;7.03;5.10;;;;;;;19.96;44.49;100750.84;2069316;28;19918;-67
2021/04/13 01:18:37;;;;;;;8.90;5.55;;;;;;;19.94;44.47;100753.69;2069605;28;20033;-67
2021/04/13 01:19:47;;;;;;;6.18;4.63;;;;;;;19.94;44.41;100750.97;2069089;28;20061;-67
2021/04/13 01:20:59;;;;;;;6.07;4.53;;;;;;;19.95;44.51;100754.59;2070142;28;20033;-67
2021/04/13 01:22:21;;;;;;;8.57;5.20;;;;;;;19.94;44.52;100755.56;2064929;28;20612;-67
2021/04/13 01:23:26;;;;;;;9.20;5.22;;;;;;;19.96;44.42;100753.56;2064662;28;20038;-67
2021/04/13 01:24:34;;;;;;;6.18;4.75;;;;;;;19.93;44.52;100749.25;2069876;28;20033;-67
2021/04/13 01:25:38;;;;;;;6.10;4.68;;;;;;;19.93;44.52;100754.72;2069340;28;20037;-67
2021/04/13 01:26:46;;;;;;;8.15;5.30;;;;;;;19.95;44.50;100755.44;2069890;28;20744;-67
2021/04/13 01:28:10;;;;;;;7.03;5.00;;;;;;;19.93;44.42;100751.97;2069625;28;20556;-67
2021/04/13 01:29:12;;;;;;;7.85;5.10;;;;;;;19.92;44.42;100750.25;2065339;28;20148;-67
2021/04/13 01:30:14;;;;;;;7.18;4.85;;;;;;;19.93;44.47;100754.72;2069648;28;20550;-67
2021/04/13 01:32:42;;;;;;;6.97;4.68;;;;;;;19.91;44.46;100754.84;2069851;28;20053;-67
2021/04/13 01:34:47;;;;;;;7.90;5.43;;;;;;;19.91;44.48;100751.25;2069305;28;20698;-67
2021/04/13 01:35:51;;;;;;;6.38;4.25;;;;;;;19.92;44.41;100753.00;2068902;28;20100;-67
2021/04/13 01:37:05;;;;;;;7.15;4.93;;;;;;;19.90;44.42;100757.72;2062077;28;20045;-67
2021/04/13 01:38:19;;;;;;;7.28;4.60;;;;;;;19.90;44.47;100752.25;2066092;28;20105;-67
2021/04/13 01:39:24;;;;;;;7.05;5.13;;;;;;;19.90;44.46;100752.25;2069721;28;20057;-67
2021/04/13 01:41:28;;;;;;;7.93;4.85;;;;;;;19.88;44.52;100760.59;2069273;28;20139;-67
2021/04/13 01:42:01;;;;;;;7.88;4.57;;;;;;;19.87;44.50;100747.09;2062630;28;20046;-67
2021/04/13 01:43:02;;;;;;;8.20;5.07;;;;;;;19.88;44.52;100755.13;2069739;28;20072;-67
2021/04/13 01:44:03;;;;;;;6.93;5.13;;;;;;;19.87;44.50;100752.56;2066939;28;20042;-67
2021/04/13 01:45:08;;;;;;;6.57;4.33;;;;;;;19.88;44.27;100748.78;2068717;28;20528;-67
2021/04/13 01:46:11;;;;;;;7.57;4.50;;;;;;;19.87;44.46;100747.94;2063320;28;20265;-67
2021/04/13 01:47:15;;;;;;;7.25;4.57;;;;;;;19.87;44.53;100752.56;2067695;28;20041;-67
2021/04/13 01:48:18;;;;;;;5.90;4.53;;;;;;;19.87;44.21;100753.41;2066250;28;20029;-67
2021/04/13 01:49:18;;;;;;;7.90;4.97;;;;;;;19.87;44.72;100758.03;2065289;28;20067;-67
2021/04/13 01:50:28;;;;;;;7.97;4.40;;;;;;;19.86;44.50;100750.81;2068299;28;20118;-67
2021/04/13 01:51:33;;;;;;;5.70;4.18;;;;;;;19.85;44.58;100754.56;2063426;28;20030;-67
2021/04/13 01:52:38;;;;;;;8.13;4.45;;;;;;;19.86;44.60;100753.53;2069876;28;20030;-67
2021/04/13 01:53:44;;;;;;;9.43;4.70;;;;;;;19.85;44.51;100749.09;2069055;28;20096;-67
2021/04/13 01:54:45;;;;;;;6.93;4.28;;;;;;;19.85;44.54;100749.94;2068026;28;20029;-67
2021/04/13 01:56:00;;;;;;;6.27;4.63;;;;;;;19.85;44.51;100749.09;2069621;28;20044;-67
2021/04/13 01:57:04;;;;;;;8.85;5.15;;;;;;;19.83;44.59;100753.81;2065946;28;20037;-67
2021/04/13 02:00:02;;;;;;;6.22;4.43;;;;;;;19.81;44.68;100758.56;2068720;28;20411;-67
2021/04/13 02:01:23;;;;;;;6.10;4.85;;;;;;;19.80;44.67;100756.84;2066580;28;20481;-67
2021/04/13 02:02:30;;;;;;;6.00;4.65;;;;;;;19.80;44.71;100757.69;2064176;28;20209;-67
2021/04/13 02:03:34;;;;;;;6.95;4.55;;;;;;;19.80;44.56;100763.19;2069000;28;20034;-67
2021/04/13 02:04:47;;;;;;;6.70;4.68;;;;;;;19.80;44.71;100757.69;2068627;28;20596;-67
2021/04/13 02:05:53;;;;;;;5.78;4.25;;;;;;;19.80;44.73;100751.38;2066764;28;20061;-67
2021/04/13 02:07:05;;;;;;;12.82;4.93;;;;;;;19.79;44.69;100755.09;2068973;28;20040;-67
2021/04/13 02:08:16;;;;;;;5.90;4.05;;;;;;;19.78;44.78;100761.59;2068618;28;20411;-67
2021/04/13 02:09:34;;;;;;;6.13;4.07;;;;;;;19.79;44.66;100760.56;2062307;28;20042;-67
2021/04/13 02:11:01;;;;;;;6.95;4.57;;;;;;;19.76;44.88;100749.91;2069428;28;20044;-67
2021/04/13 02:12:08;;;;;;;5.88;4.45;;;;;;;19.77;44.66;100768.03;2066189;28;20048;-67
2021/04/13 02:13:26;;;;;;;7.38;4.68;;;;;;;19.76;44.72;100760.84;2065193;28;20035;-67
2021/04/13 02:14:34;;;;;;;7.65;4.40;;;;;;;19.75;44.68;100761.88;2064299;28;20042;-67
2021/04/13 02:15:40;;;;;;;6.45;4.25;;;;;;;19.75;44.78;100753.66;2068837;28;20030;-68
2021/04/13 02:16:55;;;;;;;7.00;4.47;;;;;;;19.75;44.72;100760.00;2070014;28;20092;-67
2021/04/13 02:18:03;;;;;;;5.65;4.47;;;;;;;19.74;44.75;100758.25;2068605;28;20033;-67
2021/04/13 02:19:09;;;;;;;8.88;5.10;;;;;;;19.74;44.74;100754.66;2068956;28;20061;-67
2021/04/13 02:20:14;;;;;;;6.53;4.45;;;;;;;19.74;44.70;100751.91;2068308;28;20111;-67
2021/04/13 02:21:18;;;;;;;6.85;4.25;;;;;;;19.74;44.73;100757.38;2067705;28;20033;-68
2021/04/13 02:22:22;;;;;;;6.25;4.40;;;;;;;19.74;44.70;100757.38;2068263;28;20030;-67
2021/04/13 02:23:31;;;;;;;6.20;4.25;;;;;;;19.73;44.83;100761.13;2070096;28;20064;-67
2021/04/13 02:24:33;;;;;;;7.68;3.83;;;;;;;19.74;44.64;100757.38;2067487;28;20062;-67
2021/04/13 02:25:37;;;;;;;6.50;4.20;;;;;;;19.74;44.71;100752.78;2070862;28;20099;-67
2021/04/13 02:26:42;;;;;;;5.85;4.05;;;;;;;19.73;44.70;100756.53;2071611;28;20092;-67
2021/04/13 02:27:45;;;;;;;6.47;4.32;;;;;;;19.74;44.69;100757.38;2068673;28;20070;-67
2021/04/13 02:28:47;;;;;;;6.43;4.00;;;;;;;19.73;44.75;100756.53;2071415;28;20026;-67
2021/04/13 02:29:50;;;;;;;6.07;4.30;;;;;;;19.72;44.72;100757.53;2070582;28;20101;-67
2021/04/13 02:30:52;;;;;;;7.72;4.57;;;;;;;19.72;44.64;100751.19;2068299;28;20068;-67
2021/04/13 02:31:57;;;;;;;6.10;4.07;;;;;;;19.71;44.75;100747.59;2071653;28;20028;-67
2021/04/13 02:33:00;;;;;;;5.80;3.75;;;;;;;19.73;44.70;100750.19;2068409;28;20025;-67
2021/04/13 02:34:01;;;;;;;6.70;4.35;;;;;;;19.72;44.67;100753.91;2069395;28;20033;-67
2021/04/13 02:35:14;;;;;;;7.07;4.20;;;;;;;19.72;44.71;100759.38;2069283;28;20041;-67
2021/04/13 02:36:22;;;;;;;5.50;4.13;;;;;;;19.70;44.66;100752.19;2069694;28;20087;-67
2021/04/13 02:37:34;;;;;;;5.15;4.10;;;;;;;19.70;44.68;100757.66;2070085;28;20041;-67
2021/04/13 02:38:38;;;;;;;9.95;5.00;;;;;;;19.69;44.79;100758.66;2069955;28;20026;-67
2021/04/13 02:39:40;;;;;;;5.93;4.20;;;;;;;19.69;44.64;100757.78;2067745;28;20057;-67
2021/04/13 02:40:58;;;;;;;5.65;3.97;;;;;;;19.68;44.76;100767.00;2069124;28;20035;-67
2021/04/13 02:42:05;;;;;;;5.53;4.43;;;;;;;19.69;44.63;100755.91;2067577;28;20033;-67
2021/04/13 02:43:11;;;;;;;5.43;3.90;;;;;;;19.67;44.66;100757.94;2071091;28;20033;-67
2021/04/13 02:44:17;;;;;;;5.85;4.03;;;;;;;19.68;44.73;100758.81;2068609;28;20650;-67
2021/04/13 02:45:49;;;;;;;6.90;4.13;;;;;;;19.65;44.79;100757.19;2066365;28;20503;-67
2021/04/13 02:46:53;;;;;;;7.72;4.05;;;;;;;19.67;44.77;100763.41;2063976;28;20700;-67
2021/04/13 02:48:02;;;;;;;5.38;3.65;;;;;;;19.65;44.95;100757.19;2070601;28;20057;-67
2021/04/13 02:49:08;;;;;;;6.55;4.05;;;;;;;19.66;44.71;100760.78;2071095;28;20182;-67
2021/04/13 02:50:13;;;;;;;6.60;4.05;;;;;;;19.65;44.75;100759.91;2064854;28;20520;-67
2021/04/13 02:51:16;;;;;;;6.60;3.60;;;;;;;19.66;44.68;100758.91;2069791;28;20030;-67
2021/04/13 02:52:22;;;;;;;6.63;4.43;;;;;;;19.65;44.69;100762.66;2070676;28;20018;-67
2021/04/13 02:53:44;;;;;;;5.50;3.67;;;;;;;19.65;44.53;100762.66;2070001;28;20042;-67
2021/04/13 02:54:52;;;;;;;4.70;3.70;;;;;;;19.65;44.68;100765.38;2070698;28;20034;-67
2021/04/13 02:55:55;;;;;;;7.05;4.22;;;;;;;19.64;44.71;100763.63;2070447;28;20050;-67
2021/04/13 02:56:58;;;;;;;5.70;4.30;;;;;;;19.63;44.72;100769.25;2064386;28;20481;-67
2021/04/13 02:58:04;;;;;;;6.53;4.50;;;;;;;19.63;44.69;100766.53;2064454;28;20056;-67
2021/04/13 02:59:13;;;;;;;5.65;3.95;;;;;;;19.62;44.74;100771.13;2070212;28;20116;-67
2021/04/13 03:00:24;;;;;;;6.15;3.92;;;;;;;19.62;44.74;100760.19;2070257;28;20041;-67
2021/04/13 03:01:25;;;;;;;5.70;4.18;;;;;;;19.62;44.82;100762.94;2069085;28;20022;-67
2021/04/13 03:02:54;;;;;;;6.75;4.00;;;;;;;19.60;44.78;100756.72;2069270;28;20026;-67
2021/04/13 03:04:03;;;;;;;6.20;4.15;;;;;;;19.60;44.83;100767.66;2065060;28;20025;-67
2021/04/13 03:05:05;;;;;;;6.15;3.92;;;;;;;19.61;45.12;100761.19;2070423;28;20579;-67
2021/04/13 03:06:06;;;;;;;5.20;3.83;;;;;;;19.62;44.80;100762.03;2068889;28;20472;-67
2021/04/13 03:07:11;;;;;;;5.83;3.57;;;;;;;19.61;44.67;100754.84;2069394;28;20085;-67
2021/04/13 03:08:14;;;;;;;5.55;3.67;;;;;;;19.61;44.72;100757.59;2071063;28;20400;-67
2021/04/13 03:09:18;;;;;;;7.43;4.32;;;;;;;19.60;44.73;100762.19;2070868;28;20397;-67
2021/04/13 03:10:25;;;;;;;5.28;3.92;;;;;;;19.60;44.73;100756.72;2069848;28;20397;-67
2021/04/13 03:11:26;;;;;;;6.85;4.28;;;;;;;19.60;44.70;100751.25;2071376;28;20029;-67
2021/04/13 03:12:31;;;;;;;6.07;3.83;;;;;;;19.60;44.70;100754.00;2069205;28;20048;-67
2021/04/13 03:13:35;;;;;;;5.57;3.65;;;;;;;19.58;44.77;100753.25;2070100;28;20034;-67
2021/04/13 03:14:39;;;;;;;5.88;3.95;;;;;;;19.60;44.73;100754.00;2071206;28;20041;-67
2021/04/13 03:15:42;;;;;;;5.18;3.72;;;;;;;19.58;44.75;100746.94;2063915;28;20021;-67
2021/04/13 03:16:45;;;;;;;7.07;4.57;;;;;;;19.57;44.81;100748.78;2071226;28;20022;-67
2021/04/13 03:17:50;;;;;;;6.22;3.55;;;;;;;19.58;44.75;100753.25;2069065;28;20030;-67
2021/04/13 03:18:54;;;;;;;6.13;3.83;;;;;;;19.59;44.60;100754.97;2067786;28;20046;-67
2021/04/13 03:20:07;;;;;;;5.93;3.75;;;;;;;19.57;44.66;100756.13;2070418;28;20085;-67
2021/04/13 03:21:25;;;;;;;6.72;4.45;;;;;;;19.56;44.68;100752.53;2066001;28;20033;-68
2021/04/13 03:22:26;;;;;;;5.68;3.50;;;;;;;19.57;44.54;100754.25;2065294;28;20038;-67
2021/04/13 03:23:30;;;;;;;9.50;4.18;;;;;;;19.55;44.67;100753.53;2069500;28;20084;-67
2021/04/13 03:24:36;;;;;;;5.88;3.88;;;;;;;19.56;44.76;100748.94;2066316;28;20627;-67
2021/04/13 03:25:41;;;;;;;4.43;3.60;;;;;;;19.56;44.66;100749.78;2070818;28;20138;-67
2021/04/13 03:26:50;;;;;;;4.82;3.47;;;;;;;19.55;44.73;100750.81;2070000;28;20030;-67
2021/04/13 03:27:51;;;;;;;6.15;4.28;;;;;;;19.55;44.71;100759.03;2066088;28;20101;-67
2021/04/13 03:29:01;;;;;;;4.85;3.38;;;;;;;19.54;44.68;100757.25;2068926;28;20129;-67
2021/04/13 03:30:06;;;;;;;4.70;3.60;;;;;;;19.55;44.63;100753.53;2070036;28;20464;-67
2021/04/13 03:31:08;;;;;;;6.18;4.50;;;;;;;19.54;44.63;100746.31;2065438;28;20121;-67
2021/04/13 03:32:10;;;;;;;5.55;3.58;;;;;;;19.54;44.60;100750.94;2070015;28;20164;-67
2021/04/13 03:33:24;;;;;;;5.15;3.67;;;;;;;19.52;44.47;100756.53;2069018;28;20120;-67
2021/04/13 03:34:25;;;;;;;5.13;4.03;;;;;;;19.53;44.63;100755.53;2070518;28;20040;-67
2021/04/13 03:35:27;;;;;;;5.00;3.72;;;;;;;19.52;44.61;100756.53;2070032;28;20115;-67
2021/04/13 03:36:30;;;;;;;6.20;3.80;;;;;;;19.52;44.51;100753.78;2070266;28;20044;-67
2021/04/13 03:37:32;;;;;;;5.13;3.42;;;;;;;19.53;44.59;100761.00;2066930;28;20034;-67
2021/04/13 03:38:33;;;;;;;;;;;;;;;19.49;44.59;100759.53;2067937;28;20044;-67
2021/04/13 03:41:32;;;;;;;5.07;3.45;;;;;;;19.46;44.79;100760.69;2067393;28;20038;-67
2021/04/13 03:42:34;;;;;;;6.00;3.45;;;;;;;19.47;44.65;100756.06;2070115;28;20731;-67
2021/04/13 03:43:35;;;;;;;4.90;3.33;;;;;;;19.47;44.63;100758.81;2068141;28;20049;-67
2021/04/13 03:44:37;;;;;;;5.37;3.47;;;;;;;19.48;44.93;100749.63;2071050;28;20105;-67
2021/04/13 03:45:38;;;;;;;6.63;3.70;;;;;;;19.47;44.64;100745.13;2067828;28;20045;-67
2021/04/13 03:46:39;;;;;;;5.13;3.20;;;;;;;19.48;44.54;100753.22;2070317;28;20156;-67
2021/04/13 03:47:40;;;;;;;5.80;4.03;;;;;;;19.48;44.59;100746.88;2068568;28;20511;-67
2021/04/13 03:49:02;;;;;;;5.25;3.47;;;;;;;19.46;44.70;100746.16;2070216;28;20034;-67
2021/04/13 03:50:06;;;;;;;5.90;3.88;;;;;;;19.46;44.65;100743.41;2070626;28;20296;-67
2021/04/13 03:51:14;;;;;;;5.28;3.55;;;;;;;19.46;44.53;100755.22;2065877;28;20057;-67
2021/04/13 03:52:20;;;;;;;5.78;3.65;;;;;;;19.45;44.66;100748.03;2069722;28;20049;-67
2021/04/13 03:53:35;;;;;;;4.88;3.65;;;;;;;19.44;44.53;100757.22;2065128;28;20416;-67
2021/04/13 03:54:38;;;;;;;6.50;4.03;;;;;;;19.44;44.46;100751.75;2069904;28;20034;-68
2021/04/13 03:55:39;;;;;;;6.30;4.40;;;;;;;19.46;44.54;100751.63;2069834;28;20026;-68
2021/04/13 03:56:40;;;;;;;6.78;3.83;;;;;;;19.45;44.64;100752.59;2064323;28;20071;-68
2021/04/13 03:57:41;;;;;;;3.93;3.13;;;;;;;19.45;44.51;100749.88;2066968;28;20125;-68
2021/04/13 03:58:47;;;;;;;5.10;3.40;;;;;;;19.44;44.67;100746.28;2066319;28;20400;-67
2021/04/13 03:59:55;;;;;;;4.22;3.25;;;;;;;19.44;44.57;100740.81;2065577;28;20026;-67
2021/04/13 04:00:55;;;;;;;5.28;3.58;;;;;;;19.44;44.61;100745.41;2063860;28;20026;-67
2021/04/13 04:01:56;;;;;;;5.67;3.67;;;;;;;19.43;44.68;100739.09;2069901;28;20815;-67
2021/04/13 04:02:57;;;;;;;6.23;3.83;;;;;;;19.44;44.67;100743.53;2069547;28;20444;-67
2021/04/13 04:04:03;;;;;;;6.73;3.63;;;;;;;19.43;44.63;100738.22;2069475;28;20420;-67
2021/04/13 04:05:12;;;;;;;4.82;3.55;;;;;;;19.43;44.62;100740.97;2069504;28;20100;-67
2021/04/13 04:06:47;;;;;;;6.97;4.18;;;;;;;19.41;44.61;100742.97;2069869;28;20381;-67
2021/04/13 04:09:32;;;;;;;4.32;3.08;;;;;;;19.38;44.80;100735.06;2066873;28;20029;-66
2021/04/13 04:10:48;;;;;;;4.85;3.38;;;;;;;19.38;44.67;100735.06;2048976;28;20114;-67
2021/04/13 04:11:49;;;;;;;5.82;3.47;;;;;;;19.39;44.79;100736.78;2051695;28;20158;-67
2021/04/13 04:13:20;;;;;;;5.03;3.42;;;;;;;19.37;44.72;100738.75;2057576;28;20133;-67
2021/04/13 04:14:24;;;;;;;5.07;3.28;;;;;;;19.38;44.70;100737.78;2057549;28;20061;-67
2021/04/13 04:15:40;;;;;;;4.00;2.85;;;;;;;19.37;44.56;100739.63;2061247;28;20088;-67
2021/04/13 04:16:41;;;;;;;4.63;3.20;;;;;;;19.38;44.70;100740.50;2064842;28;20026;-67
2021/04/13 04:17:48;;;;;;;5.13;3.60;;;;;;;19.38;44.75;100745.97;2066334;28;20026;-67
2021/04/13 04:18:51;;;;;;;4.50;3.17;;;;;;;19.37;44.80;100731.41;2061940;28;20059;-67
2021/04/13 04:19:59;;;;;;;4.18;2.95;;;;;;;19.37;44.81;100739.63;2063796;28;20050;-67
2021/04/13 04:21:13;;;;;;;6.05;3.67;;;;;;;19.37;44.75;100739.63;2064883;28;20037;-67
2021/04/13 04:22:14;;;;;;;4.53;3.00;;;;;;;19.37;44.66;100738.75;2062395;28;20026;-67
2021/04/13 04:23:17;;;;;;;5.32;3.40;;;;;;;19.38;44.68;100737.78;2067279;28;20033;-67
2021/04/13 04:24:32;;;;;;;4.07;2.88;;;;;;;19.36;44.75;100731.56;2070095;28;20034;-67
2021/04/13 04:25:41;;;;;;;4.55;3.20;;;;;;;19.36;44.69;100731.56;2068075;28;20036;-67
2021/04/13 04:26:49;;;;;;;5.55;3.50;;;;;;;19.35;44.63;100736.16;2068236;28;20026;-67
2021/04/13 04:27:54;;;;;;;4.00;3.03;;;;;;;19.37;44.71;100734.16;2067139;28;20112;-68
2021/04/13 04:29:14;;;;;;;4.75;3.30;;;;;;;19.35;44.66;100735.28;2069465;28;20021;-67
2021/04/13 04:30:33;;;;;;;5.82;3.35;;;;;;;19.34;44.69;100728.13;2068949;28;20038;-67
2021/04/13 04:31:37;;;;;;;4.90;3.30;;;;;;;19.35;44.69;100732.56;2069856;28;20100;-67
2021/04/13 04:32:41;;;;;;;4.45;3.35;;;;;;;19.34;44.73;100739.03;2069852;28;20032;-68
2021/04/13 04:33:42;;;;;;;3.70;2.92;;;;;;;19.35;44.60;100735.28;2064792;28;20018;-67
2021/04/13 04:35:05;;;;;;;3.83;2.73;;;;;;;19.34;44.58;100730.84;2064002;28;20127;-67
2021/04/13 04:36:39;;;;;;;6.05;3.78;;;;;;;19.33;44.68;100737.28;2070600;28;20084;-68
2021/04/13 04:37:48;;;;;;;4.63;2.88;;;;;;;19.31;44.56;100729.25;2069287;28;20049;-68
2021/04/13 04:38:48;;;;;;;6.43;3.00;;;;;;;19.32;44.59;100732.84;2068829;28;20026;-68
2021/04/13 04:40:12;;;;;;;4.60;3.47;;;;;;;19.30;44.69;100730.22;2070150;28;20105;-67
2021/04/13 04:41:13;;;;;;;5.15;3.40;;;;;;;19.32;44.68;100741.03;2062564;28;20104;-67
2021/04/13 04:42:20;;;;;;;7.40;3.23;;;;;;;19.31;44.63;100731.13;2068481;28;20103;-67
2021/04/13 04:43:45;;;;;;;5.63;3.35;;;;;;;19.31;44.57;100728.41;2070479;28;20453;-68
2021/04/13 04:45:24;;;;;;;4.80;2.88;;;;;;;19.28;44.73;100724.91;2063122;28;20057;-67
2021/04/13 04:46:41;;;;;;;4.90;2.92;;;;;;;19.28;44.74;100729.53;2059657;28;20516;-68
2021/04/13 04:47:44;;;;;;;5.78;2.97;;;;;;;19.27;44.58;100731.38;2064920;28;20395;-67
2021/04/13 04:49:04;;;;;;;4.30;3.17;;;;;;;19.26;44.68;100726.91;2065149;28;20516;-68
2021/04/13 04:50:07;;;;;;;5.57;3.58;;;;;;;19.27;44.64;100727.78;2065581;28;20021;-68
2021/04/13 04:51:10;;;;;;;4.88;2.97;;;;;;;19.27;44.59;100728.63;2070183;28;20033;-68
2021/04/13 04:52:11;;;;;;;6.25;3.63;;;;;;;19.26;44.55;100718.72;2069673;28;20037;-68
2021/04/13 04:53:12;;;;;;;7.23;3.43;;;;;;;19.27;44.58;100728.63;2063731;28;20026;-67
2021/04/13 04:54:25;;;;;;;5.07;3.35;;;;;;;19.25;44.58;100730.63;2066839;28;20065;-68
2021/04/13 04:55:25;;;;;;;4.47;3.13;;;;;;;19.26;44.70;100726.91;2068394;28;20025;-68
2021/04/13 04:56:26;;;;;;;4.43;3.10;;;;;;;19.27;44.71;100727.78;2064064;28;20041;-68
2021/04/13 04:57:27;;;;;;;5.57;3.40;;;;;;;19.26;44.64;100723.34;2067516;28;20022;-68
2021/04/13 04:58:28;;;;;;;7.22;3.78;;;;;;;19.25;44.73;100722.44;2070252;28;20089;-68
2021/04/13 04:59:28;;;;;;;4.97;3.40;;;;;;;19.26;44.53;100726.91;2067904;28;20102;-68
2021/04/13 05:00:29;;;;;;;3.87;3.23;;;;;;;19.25;44.70;100730.63;2066058;28;20718;-68
2021/04/13 05:01:41;;;;;;;4.63;3.13;;;;;;;19.24;44.64;100723.44;2065187;28;20026;-68
2021/04/13 05:02:41;;;;;;;4.93;3.08;;;;;;;19.24;44.64;100728.91;2063376;28;20576;-68
2021/04/13 05:03:42;;;;;;;5.57;3.53;;;;;;;19.24;44.64;100723.44;2069734;28;20393;-68
2021/04/13 05:04:45;;;;;;;4.97;3.63;;;;;;;19.24;44.46;100728.91;2069040;28;20133;-68
2021/04/13 05:05:45;;;;;;;4.25;2.90;;;;;;;19.24;44.65;100722.59;2069806;28;20524;-67
2021/04/13 05:06:46;;;;;;;5.47;3.07;;;;;;;19.23;44.77;100732.66;2069282;28;20451;-68
2021/04/13 05:07:46;;;;;;;4.57;3.30;;;;;;;19.24;44.54;100728.06;2069492;28;20077;-68
2021/04/13 05:08:47;;;;;;;4.30;3.00;;;;;;;19.24;44.74;100734.38;2065338;28;20829;-68
2021/04/13 05:09:48;;;;;;;4.95;3.30;;;;;;;19.24;44.59;100728.91;2068680;28;20111;-68
2021/04/13 05:10:50;;;;;;;4.37;2.73;;;;;;;19.24;44.44;100726.19;2068901;28;20513;-68
2021/04/13 05:11:50;;;;;;;5.38;3.47;;;;;;;19.23;44.72;100731.78;2068271;28;20114;-68
2021/04/13 05:12:51;;;;;;;4.53;3.27;;;;;;;19.23;44.65;100738.13;2069325;28;20033;-68
2021/04/13 05:13:52;;;;;;;6.20;3.40;;;;;;;19.22;44.57;100739.13;2067497;28;20108;-68
2021/04/13 05:14:52;;;;;;;6.35;3.25;;;;;;;19.22;44.49;100730.91;2068360;28;20034;-68
2021/04/13 05:15:53;;;;;;;3.87;2.87;;;;;;;19.22;44.60;100741.00;2069488;28;20101;-68
2021/04/13 05:16:53;;;;;;;6.17;3.13;;;;;;;19.21;44.67;100729.19;2065302;28;20049;-67
2021/04/13 05:17:54;;;;;;;4.77;2.70;;;;;;;19.21;44.76;100734.66;2069588;28;20592;-68
2021/04/13 05:18:54;;;;;;;4.53;3.10;;;;;;;19.21;44.55;100737.41;2068267;28;20104;-68
2021/04/13 05:19:55;;;;;;;4.17;2.77;;;;;;;19.22;44.53;100741.84;2067024;28;20398;-68
2021/04/13 05:20:55;;;;;;;5.33;3.23;;;;;;;19.22;44.59;100738.25;2067980;28;20029;-68